sensor_id;sensor_type;location;lat;lon;timestamp;pressure;altitude;pressure_sealevel;temperature;humidity
65997;BME280;52765;52.258;21.052;2023-02-18T00:01:14;99540.31;;;7.60;90.80
65997;BME280;52765;52.258;21.052;2023-02-18T00:03:40;99514.13;;;7.54;89.74
65997;BME280;52765;52.258;21.052;2023-02-18T00:06:14;99527.88;;;7.59;89.70
65997;BME280;52765;52.258;21.052;2023-02-18T00:08:41;99528.75;;;7.59;90.97
65997;BME280;52765;52.258;21.052;2023-02-18T00:11:08;99540.16;;;7.62;91.02
65997;BME280;52765;52.258;21.052;2023-02-18T00:13:34;99550.41;;;7.66;91.67
65997;BME280;52765;52.258;21.052;2023-02-18T00:16:05;99556.75;;;7.65;93.35
65997;BME280;52765;52.258;21.052;2023-02-18T00:18:31;99560.75;;;7.61;93.68
65997;BME280;52765;52.258;21.052;2023-02-18T00:20:57;99561.06;;;7.58;93.02
65997;BME280;52765;52.258;21.052;2023-02-18T00:23:22;99560.31;;;7.48;93.39
65997;BME280;52765;52.258;21.052;2023-02-18T00:25:48;99570.88;;;7.49;91.79
65997;BME280;52765;52.258;21.052;2023-02-18T00:28:13;99558.78;;;7.45;90.54
65997;BME280;52765;52.258;21.052;2023-02-18T00:30:42;99571.88;;;7.48;89.55
65997;BME280;52765;52.258;21.052;2023-02-18T00:33:08;99564.31;;;7.44;88.44
65997;BME280;52765;52.258;21.052;2023-02-18T00:35:34;99566.31;;;7.41;86.90
65997;BME280;52765;52.258;21.052;2023-02-18T00:38:00;99582.00;;;7.36;86.75
65997;BME280;52765;52.258;21.052;2023-02-18T00:40:25;99563.19;;;7.28;84.19
65997;BME280;52765;52.258;21.052;2023-02-18T00:42:51;99577.41;;;7.29;83.82
65997;BME280;52765;52.258;21.052;2023-02-18T00:45:16;99574.59;;;7.30;84.27
65997;BME280;52765;52.258;21.052;2023-02-18T00:47:42;99551.13;;;7.06;84.34
65997;BME280;52765;52.258;21.052;2023-02-18T00:50:08;99571.00;;;7.21;84.03
65997;BME280;52765;52.258;21.052;2023-02-18T00:52:34;99570.69;;;7.25;84.05
65997;BME280;52765;52.258;21.052;2023-02-18T00:55:00;99571.69;;;7.23;83.35
65997;BME280;52765;52.258;21.052;2023-02-18T00:57:25;99568.84;;;7.25;82.42
65997;BME280;52765;52.258;21.052;2023-02-18T00:59:51;99569.97;;;7.22;81.31
65997;BME280;52765;52.258;21.052;2023-02-18T01:02:16;99595.34;;;7.10;80.05
65997;BME280;52765;52.258;21.052;2023-02-18T01:04:42;99593.97;;;7.06;79.79
65997;BME280;52765;52.258;21.052;2023-02-18T01:07:07;99604.69;;;7.06;77.41
65997;BME280;52765;52.258;21.052;2023-02-18T01:09:35;99594.41;;;7.01;78.83
65997;BME280;52765;52.258;21.052;2023-02-18T01:12:01;99604.13;;;7.02;78.00
65997;BME280;52765;52.258;21.052;2023-02-18T01:14:27;99584.16;;;6.97;78.66
65997;BME280;52765;52.258;21.052;2023-02-18T01:16:52;99571.59;;;6.97;78.46
65997;BME280;52765;52.258;21.052;2023-02-18T01:19:18;99589.22;;;7.00;78.12
65997;BME280;52765;52.258;21.052;2023-02-18T01:21:43;99601.13;;;6.88;77.32
65997;BME280;52765;52.258;21.052;2023-02-18T01:24:09;99586.50;;;6.82;77.56
65997;BME280;52765;52.258;21.052;2023-02-18T01:26:38;99592.25;;;6.87;77.07
65997;BME280;52765;52.258;21.052;2023-02-18T01:29:03;99632.47;;;6.77;77.70
65997;BME280;52765;52.258;21.052;2023-02-18T01:31:29;99575.56;;;6.75;76.12
65997;BME280;52765;52.258;21.052;2023-02-18T01:33:54;99590.88;;;6.83;77.31
65997;BME280;52765;52.258;21.052;2023-02-18T01:36:20;99579.47;;;6.81;76.17
65997;BME280;52765;52.258;21.052;2023-02-18T01:38:45;99564.41;;;6.80;77.29
65997;BME280;52765;52.258;21.052;2023-02-18T01:41:11;99572.91;;;6.75;76.37
65997;BME280;52765;52.258;21.052;2023-02-18T01:43:37;99562.19;;;6.75;77.32
65997;BME280;52765;52.258;21.052;2023-02-18T01:46:21;99571.81;;;6.86;76.31
65997;BME280;52765;52.258;21.052;2023-02-18T01:48:57;99575.66;;;6.83;76.21
65997;BME280;52765;52.258;21.052;2023-02-18T01:51:29;99569.78;;;6.80;76.45
65997;BME280;52765;52.258;21.052;2023-02-18T01:54:07;99566.78;;;6.83;77.52
65997;BME280;52765;52.258;21.052;2023-02-18T01:56:46;99564.13;;;6.83;77.33
65997;BME280;52765;52.258;21.052;2023-02-18T01:59:16;99554.53;;;6.80;77.44
65997;BME280;52765;52.258;21.052;2023-02-18T02:01:43;99552.31;;;6.76;77.25
65997;BME280;52765;52.258;21.052;2023-02-18T02:04:12;99548.50;;;6.78;76.85
65997;BME280;52765;52.258;21.052;2023-02-18T02:06:38;99527.38;;;6.75;76.91
65997;BME280;52765;52.258;21.052;2023-02-18T02:09:06;99559.91;;;6.80;77.27
65997;BME280;52765;52.258;21.052;2023-02-18T02:11:40;99546.50;;;6.80;77.57
65997;BME280;52765;52.258;21.052;2023-02-18T02:15:08;99551.88;;;6.80;77.08
65997;BME280;52765;52.258;21.052;2023-02-18T02:32:20;99560.94;;;6.52;78.96
65997;BME280;52765;52.258;21.052;2023-02-18T02:37:42;99571.94;;;6.48;77.54
65997;BME280;52765;52.258;21.052;2023-02-18T02:43:04;99578.66;;;6.53;76.71
65997;BME280;52765;52.258;21.052;2023-02-18T02:45:41;99574.72;;;6.57;77.40
65997;BME280;52765;52.258;21.052;2023-02-18T02:50:43;99572.81;;;6.39;76.93
65997;BME280;52765;52.258;21.052;2023-02-18T02:53:22;99579.88;;;6.40;77.20
65997;BME280;52765;52.258;21.052;2023-02-18T02:55:49;99563.41;;;6.35;76.81
65997;BME280;52765;52.258;21.052;2023-02-18T02:58:16;99581.69;;;6.40;77.23
65997;BME280;52765;52.258;21.052;2023-02-18T03:03:42;99604.38;;;6.36;77.44
65997;BME280;52765;52.258;21.052;2023-02-18T03:12:25;99594.28;;;6.29;79.51
65997;BME280;52765;52.258;21.052;2023-02-18T03:19:48;99593.47;;;6.19;79.78
65997;BME280;52765;52.258;21.052;2023-02-18T03:24:48;99600.91;;;6.25;79.23
65997;BME280;52765;52.258;21.052;2023-02-18T03:29:51;99599.69;;;6.20;78.96
65997;BME280;52765;52.258;21.052;2023-02-18T03:32:20;99605.84;;;6.20;78.79
65997;BME280;52765;52.258;21.052;2023-02-18T03:34:54;99589.28;;;6.17;78.98
65997;BME280;52765;52.258;21.052;2023-02-18T03:37:21;99614.59;;;6.13;79.74
65997;BME280;52765;52.258;21.052;2023-02-18T03:39:49;99609.28;;;6.03;79.46
65997;BME280;52765;52.258;21.052;2023-02-18T03:42:17;99607.47;;;6.03;79.45
65997;BME280;52765;52.258;21.052;2023-02-18T03:44:43;99624.06;;;6.07;79.24
65997;BME280;52765;52.258;21.052;2023-02-18T03:47:10;99605.34;;;6.07;78.99
65997;BME280;52765;52.258;21.052;2023-02-18T03:49:36;99608.28;;;6.14;80.00
65997;BME280;52765;52.258;21.052;2023-02-18T03:52:01;99618.03;;;6.05;78.11
65997;BME280;52765;52.258;21.052;2023-02-18T03:54:27;99631.94;;;6.08;78.72
65997;BME280;52765;52.258;21.052;2023-02-18T03:56:52;99619.41;;;6.09;78.24
65997;BME280;52765;52.258;21.052;2023-02-18T03:59:18;99641.97;;;5.97;78.53
65997;BME280;52765;52.258;21.052;2023-02-18T04:01:43;99610.56;;;5.99;78.46
65997;BME280;52765;52.258;21.052;2023-02-18T04:04:09;99607.22;;;5.97;78.58
65997;BME280;52765;52.258;21.052;2023-02-18T04:06:34;99614.94;;;5.90;79.47
65997;BME280;52765;52.258;21.052;2023-02-18T04:09:00;99613.25;;;5.89;79.52
65997;BME280;52765;52.258;21.052;2023-02-18T04:11:26;99614.41;;;5.86;79.62
65997;BME280;52765;52.258;21.052;2023-02-18T04:13:52;99628.59;;;5.87;79.73
65997;BME280;52765;52.258;21.052;2023-02-18T04:16:17;99632.69;;;5.81;80.46
65997;BME280;52765;52.258;21.052;2023-02-18T04:18:45;99632.44;;;5.74;80.80
65997;BME280;52765;52.258;21.052;2023-02-18T04:21:10;99639.16;;;5.69;81.09
65997;BME280;52765;52.258;21.052;2023-02-18T04:23:36;99685.72;;;5.76;80.57
65997;BME280;52765;52.258;21.052;2023-02-18T04:26:02;99697.13;;;5.68;81.18
65997;BME280;52765;52.258;21.052;2023-02-18T04:28:28;99629.31;;;5.69;79.79
65997;BME280;52765;52.258;21.052;2023-02-18T04:30:53;99634.25;;;5.64;80.28
65997;BME280;52765;52.258;21.052;2023-02-18T04:33:19;99636.22;;;5.62;80.67
65997;BME280;52765;52.258;21.052;2023-02-18T04:35:44;99631.16;;;5.69;80.86
65997;BME280;52765;52.258;21.052;2023-02-18T04:38:13;99629.03;;;5.63;81.60
65997;BME280;52765;52.258;21.052;2023-02-18T04:40:38;99647.06;;;5.61;81.43
65997;BME280;52765;52.258;21.052;2023-02-18T04:43:04;99634.69;;;5.50;82.11
65997;BME280;52765;52.258;21.052;2023-02-18T04:45:30;99644.81;;;5.56;82.77
65997;BME280;52765;52.258;21.052;2023-02-18T04:47:55;99637.38;;;5.60;82.27
65997;BME280;52765;52.258;21.052;2023-02-18T04:50:21;99648.75;;;5.62;82.37
65997;BME280;52765;52.258;21.052;2023-02-18T04:52:47;99650.00;;;5.57;81.74
65997;BME280;52765;52.258;21.052;2023-02-18T04:55:13;99669.28;;;5.51;81.99
65997;BME280;52765;52.258;21.052;2023-02-18T04:57:38;99661.97;;;5.63;81.78
65997;BME280;52765;52.258;21.052;2023-02-18T05:00:06;99650.72;;;5.60;82.45
65997;BME280;52765;52.258;21.052;2023-02-18T05:02:33;99660.56;;;5.59;81.62
65997;BME280;52765;52.258;21.052;2023-02-18T05:04:58;99664.50;;;5.65;82.05
65997;BME280;52765;52.258;21.052;2023-02-18T05:07:24;99672.06;;;5.69;81.95
65997;BME280;52765;52.258;21.052;2023-02-18T05:09:49;99656.03;;;5.69;81.04
65997;BME280;52765;52.258;21.052;2023-02-18T05:12:15;99667.59;;;5.60;81.58
65997;BME280;52765;52.258;21.052;2023-02-18T05:14:40;99661.56;;;5.58;80.88
65997;BME280;52765;52.258;21.052;2023-02-18T05:17:06;99662.81;;;5.54;80.91
65997;BME280;52765;52.258;21.052;2023-02-18T05:19:31;99657.59;;;5.52;81.35
65997;BME280;52765;52.258;21.052;2023-02-18T05:21:57;99661.69;;;5.56;80.43
65997;BME280;52765;52.258;21.052;2023-02-18T05:24:23;99650.88;;;5.48;81.16
65997;BME280;52765;52.258;21.052;2023-02-18T05:26:48;99694.03;;;5.44;81.40
65997;BME280;52765;52.258;21.052;2023-02-18T05:29:14;99667.16;;;5.35;81.45
65997;BME280;52765;52.258;21.052;2023-02-18T05:31:39;99678.00;;;5.44;81.96
65997;BME280;52765;52.258;21.052;2023-02-18T05:34:05;99673.94;;;5.40;81.99
65997;BME280;52765;52.258;21.052;2023-02-18T05:36:30;99681.09;;;5.59;81.17
65997;BME280;52765;52.258;21.052;2023-02-18T05:38:56;99684.59;;;5.49;81.44
65997;BME280;52765;52.258;21.052;2023-02-18T05:41:21;99674.22;;;5.46;81.13
65997;BME280;52765;52.258;21.052;2023-02-18T05:43:47;99676.88;;;5.27;82.26
65997;BME280;52765;52.258;21.052;2023-02-18T05:46:31;99687.56;;;5.36;82.93
65997;BME280;52765;52.258;21.052;2023-02-18T05:48:57;99697.81;;;5.31;82.69
65997;BME280;52765;52.258;21.052;2023-02-18T05:51:22;99694.16;;;5.32;82.54
65997;BME280;52765;52.258;21.052;2023-02-18T05:53:48;99712.56;;;5.35;82.33
65997;BME280;52765;52.258;21.052;2023-02-18T05:56:13;99696.13;;;5.30;82.54
65997;BME280;52765;52.258;21.052;2023-02-18T05:58:39;99698.25;;;5.36;82.43
65997;BME280;52765;52.258;21.052;2023-02-18T06:01:04;99705.81;;;5.41;82.26
65997;BME280;52765;52.258;21.052;2023-02-18T06:03:30;99676.59;;;5.40;81.49
65997;BME280;52765;52.258;21.052;2023-02-18T06:05:59;99704.72;;;5.44;80.42
65997;BME280;52765;52.258;21.052;2023-02-18T06:08:25;99710.19;;;5.42;81.40
65997;BME280;52765;52.258;21.052;2023-02-18T06:10:51;99721.41;;;5.36;81.40
65997;BME280;52765;52.258;21.052;2023-02-18T06:13:23;99702.59;;;5.37;82.01
65997;BME280;52765;52.258;21.052;2023-02-18T06:15:50;99719.63;;;5.36;80.86
65997;BME280;52765;52.258;21.052;2023-02-18T06:18:16;99736.06;;;5.32;81.48
65997;BME280;52765;52.258;21.052;2023-02-18T06:20:42;99712.84;;;5.42;81.35
65997;BME280;52765;52.258;21.052;2023-02-18T06:23:09;99724.53;;;5.31;81.56
65997;BME280;52765;52.258;21.052;2023-02-18T06:25:35;99731.41;;;5.34;81.31
65997;BME280;52765;52.258;21.052;2023-02-18T06:28:00;99740.97;;;5.36;79.50
65997;BME280;52765;52.258;21.052;2023-02-18T06:30:26;99755.19;;;5.37;79.66
65997;BME280;52765;52.258;21.052;2023-02-18T06:32:53;99727.34;;;5.30;79.30
65997;BME280;52765;52.258;21.052;2023-02-18T06:35:19;99734.50;;;5.39;79.66
65997;BME280;52765;52.258;21.052;2023-02-18T06:37:44;99743.09;;;5.33;80.63
65997;BME280;52765;52.258;21.052;2023-02-18T06:40:10;99753.34;;;5.37;80.34
65997;BME280;52765;52.258;21.052;2023-02-18T06:42:37;99761.78;;;5.43;80.07
65997;BME280;52765;52.258;21.052;2023-02-18T06:45:03;99759.13;;;5.33;81.17
65997;BME280;52765;52.258;21.052;2023-02-18T06:47:31;99749.69;;;5.38;81.19
65997;BME280;52765;52.258;21.052;2023-02-18T06:49:56;99758.66;;;5.28;80.72
65997;BME280;52765;52.258;21.052;2023-02-18T06:52:23;99772.16;;;5.36;80.79
65997;BME280;52765;52.258;21.052;2023-02-18T06:54:49;99764.03;;;5.37;80.86
65997;BME280;52765;52.258;21.052;2023-02-18T06:57:15;99771.06;;;5.38;80.42
65997;BME280;52765;52.258;21.052;2023-02-18T06:59:40;99760.53;;;5.47;80.44
65997;BME280;52765;52.258;21.052;2023-02-18T07:02:06;99764.47;;;5.52;80.27
65997;BME280;52765;52.258;21.052;2023-02-18T07:04:31;99762.94;;;5.60;79.85
65997;BME280;52765;52.258;21.052;2023-02-18T07:06:57;99769.97;;;5.61;78.82
65997;BME280;52765;52.258;21.052;2023-02-18T07:09:22;99760.09;;;5.61;79.06
65997;BME280;52765;52.258;21.052;2023-02-18T07:11:48;99752.69;;;5.65;78.52
65997;BME280;52765;52.258;21.052;2023-02-18T07:14:13;99750.00;;;5.65;77.12
65997;BME280;52765;52.258;21.052;2023-02-18T07:16:39;99760.56;;;5.66;77.58
65997;BME280;52765;52.258;21.052;2023-02-18T07:19:04;99779.97;;;5.78;77.51
65997;BME280;52765;52.258;21.052;2023-02-18T07:21:30;99769.56;;;5.75;77.06
65997;BME280;52765;52.258;21.052;2023-02-18T07:23:56;99781.66;;;5.79;76.43
65997;BME280;52765;52.258;21.052;2023-02-18T07:26:21;99780.25;;;5.75;77.04
65997;BME280;52765;52.258;21.052;2023-02-18T07:28:46;99766.88;;;5.65;77.28
65997;BME280;52765;52.258;21.052;2023-02-18T07:31:12;99766.03;;;5.65;78.13
65997;BME280;52765;52.258;21.052;2023-02-18T07:33:38;99766.59;;;5.68;78.55
65997;BME280;52765;52.258;21.052;2023-02-18T07:36:03;99771.69;;;5.81;77.75
65997;BME280;52765;52.258;21.052;2023-02-18T07:38:29;99769.13;;;5.89;76.60
65997;BME280;52765;52.258;21.052;2023-02-18T07:40:56;99773.78;;;5.87;76.28
65997;BME280;52765;52.258;21.052;2023-02-18T07:43:22;99775.47;;;5.88;76.42
65997;BME280;52765;52.258;21.052;2023-02-18T07:45:47;99782.38;;;6.01;75.81
65997;BME280;52765;52.258;21.052;2023-02-18T07:48:13;99771.41;;;6.04;74.68
65997;BME280;52765;52.258;21.052;2023-02-18T07:50:39;99777.72;;;6.03;74.55
65997;BME280;52765;52.258;21.052;2023-02-18T07:53:06;99771.66;;;5.91;75.35
65997;BME280;52765;52.258;21.052;2023-02-18T07:55:32;99770.41;;;5.85;75.50
65997;BME280;52765;52.258;21.052;2023-02-18T07:58:23;99799.72;;;5.97;73.89
65997;BME280;52765;52.258;21.052;2023-02-18T08:00:50;99815.63;;;5.98;73.56
65997;BME280;52765;52.258;21.052;2023-02-18T08:03:16;99760.25;;;5.79;73.85
65997;BME280;52765;52.258;21.052;2023-02-18T08:05:42;99794.75;;;5.92;73.69
65997;BME280;52765;52.258;21.052;2023-02-18T08:08:15;99781.78;;;5.87;71.13
65997;BME280;52765;52.258;21.052;2023-02-18T08:10:41;99789.38;;;5.82;70.34
65997;BME280;52765;52.258;21.052;2023-02-18T08:13:08;99789.69;;;5.89;70.28
65997;BME280;52765;52.258;21.052;2023-02-18T08:15:34;99801.78;;;5.93;70.84
65997;BME280;52765;52.258;21.052;2023-02-18T08:17:59;99775.50;;;5.98;71.02
65997;BME280;52765;52.258;21.052;2023-02-18T08:20:27;99789.72;;;6.08;69.07
65997;BME280;52765;52.258;21.052;2023-02-18T08:22:53;99792.25;;;6.10;69.59
65997;BME280;52765;52.258;21.052;2023-02-18T08:25:18;99801.94;;;6.21;68.66
65997;BME280;52765;52.258;21.052;2023-02-18T08:27:44;99795.19;;;6.26;68.78
65997;BME280;52765;52.258;21.052;2023-02-18T08:30:10;99806.84;;;6.35;68.02
65997;BME280;52765;52.258;21.052;2023-02-18T08:32:36;99796.03;;;6.37;68.75
65997;BME280;52765;52.258;21.052;2023-02-18T08:35:02;99790.94;;;6.43;68.83
65997;BME280;52765;52.258;21.052;2023-02-18T08:37:27;99776.38;;;6.56;67.77
65997;BME280;52765;52.258;21.052;2023-02-18T08:39:53;99801.09;;;6.40;67.17
65997;BME280;52765;52.258;21.052;2023-02-18T08:42:19;99776.88;;;6.32;68.30
65997;BME280;52765;52.258;21.052;2023-02-18T08:44:44;99802.88;;;6.49;67.55
65997;BME280;52765;52.258;21.052;2023-02-18T08:47:11;99803.28;;;6.54;66.58
65997;BME280;52765;52.258;21.052;2023-02-18T08:49:37;99806.09;;;6.62;66.54
65997;BME280;52765;52.258;21.052;2023-02-18T08:52:03;99793.88;;;6.60;65.26
65997;BME280;52765;52.258;21.052;2023-02-18T08:54:29;99795.66;;;6.59;65.18
65997;BME280;52765;52.258;21.052;2023-02-18T08:56:55;99803.00;;;6.57;62.75
65997;BME280;52765;52.258;21.052;2023-02-18T08:59:23;99818.25;;;6.47;62.33
65997;BME280;52765;52.258;21.052;2023-02-18T09:01:49;99824.56;;;6.56;63.91
65997;BME280;52765;52.258;21.052;2023-02-18T09:04:15;99822.41;;;6.69;63.26
65997;BME280;52765;52.258;21.052;2023-02-18T09:06:41;99854.72;;;6.58;63.16
65997;BME280;52765;52.258;21.052;2023-02-18T09:09:06;99823.19;;;6.32;63.82
65997;BME280;52765;52.258;21.052;2023-02-18T09:11:32;99822.63;;;6.48;63.59
65997;BME280;52765;52.258;21.052;2023-02-18T09:13:57;99837.38;;;6.52;63.39
65997;BME280;52765;52.258;21.052;2023-02-18T09:16:23;99819.75;;;6.59;63.22
65997;BME280;52765;52.258;21.052;2023-02-18T09:18:49;99823.59;;;6.57;64.02
65997;BME280;52765;52.258;21.052;2023-02-18T09:21:15;99812.44;;;6.61;63.36
65997;BME280;52765;52.258;21.052;2023-02-18T09:23:43;99834.69;;;6.62;63.98
65997;BME280;52765;52.258;21.052;2023-02-18T09:26:11;99843.41;;;6.74;63.46
65997;BME280;52765;52.258;21.052;2023-02-18T09:28:38;99856.38;;;6.59;63.50
65997;BME280;52765;52.258;21.052;2023-02-18T09:31:13;99839.03;;;6.73;64.54
65997;BME280;52765;52.258;21.052;2023-02-18T09:33:43;99867.78;;;6.71;63.59
65997;BME280;52765;52.258;21.052;2023-02-18T09:36:09;99833.31;;;6.58;62.87
65997;BME280;52765;52.258;21.052;2023-02-18T09:38:35;99826.50;;;6.73;62.40
65997;BME280;52765;52.258;21.052;2023-02-18T09:41:07;99849.03;;;6.80;61.25
65997;BME280;52765;52.258;21.052;2023-02-18T09:43:40;99863.84;;;6.75;61.47
65997;BME280;52765;52.258;21.052;2023-02-18T09:46:19;99845.97;;;6.56;62.15
65997;BME280;52765;52.258;21.052;2023-02-18T09:48:47;99847.81;;;6.55;62.26
65997;BME280;52765;52.258;21.052;2023-02-18T09:51:14;99860.38;;;6.45;62.29
65997;BME280;52765;52.258;21.052;2023-02-18T09:53:42;99858.94;;;6.41;62.70
65997;BME280;52765;52.258;21.052;2023-02-18T09:56:32;99861.63;;;6.51;62.77
65997;BME280;52765;52.258;21.052;2023-02-18T09:59:03;99846.34;;;6.80;61.67
65997;BME280;52765;52.258;21.052;2023-02-18T10:01:35;99861.97;;;6.95;61.58
65997;BME280;52765;52.258;21.052;2023-02-18T10:04:21;99876.03;;;6.97;60.88
65997;BME280;52765;52.258;21.052;2023-02-18T10:06:58;99867.88;;;6.98;61.51
65997;BME280;52765;52.258;21.052;2023-02-18T10:09:31;99861.41;;;6.91;61.10
65997;BME280;52765;52.258;21.052;2023-02-18T10:12:18;99853.81;;;6.87;61.11
65997;BME280;52765;52.258;21.052;2023-02-18T10:14:51;99863.78;;;6.94;61.75
65997;BME280;52765;52.258;21.052;2023-02-18T10:17:17;99854.88;;;7.03;61.69
65997;BME280;52765;52.258;21.052;2023-02-18T10:19:45;99859.53;;;7.01;60.96
65997;BME280;52765;52.258;21.052;2023-02-18T10:22:16;99868.41;;;7.02;61.13
65997;BME280;52765;52.258;21.052;2023-02-18T10:24:54;99855.22;;;6.81;59.88
65997;BME280;52765;52.258;21.052;2023-02-18T10:27:30;99853.06;;;6.94;60.69
65997;BME280;52765;52.258;21.052;2023-02-18T10:30:16;99855.47;;;6.88;59.96
65997;BME280;52765;52.258;21.052;2023-02-18T10:32:45;99854.25;;;6.82;60.77
65997;BME280;52765;52.258;21.052;2023-02-18T10:35:43;99844.13;;;7.13;59.53
65997;BME280;52765;52.258;21.052;2023-02-18T10:38:28;99852.94;;;7.33;59.09
65997;BME280;52765;52.258;21.052;2023-02-18T10:41:14;99841.66;;;7.57;58.95
65997;BME280;52765;52.258;21.052;2023-02-18T10:44:21;99911.66;;;7.17;59.19
65997;BME280;52765;52.258;21.052;2023-02-18T10:52:55;99820.78;;;7.33;58.56
65997;BME280;52765;52.258;21.052;2023-02-18T10:55:37;99819.34;;;7.11;59.47
65997;BME280;52765;52.258;21.052;2023-02-18T10:58:03;99833.13;;;7.16;59.46
65997;BME280;52765;52.258;21.052;2023-02-18T11:00:34;99815.66;;;7.40;58.56
65997;BME280;52765;52.258;21.052;2023-02-18T11:03:15;99822.09;;;7.47;58.06
65997;BME280;52765;52.258;21.052;2023-02-18T11:05:41;99812.59;;;7.35;58.73
65997;BME280;52765;52.258;21.052;2023-02-18T11:08:15;99843.31;;;7.13;58.78
65997;BME280;52765;52.258;21.052;2023-02-18T11:10:42;99834.47;;;7.30;58.69
65997;BME280;52765;52.258;21.052;2023-02-18T11:13:12;99820.69;;;7.25;59.38
65997;BME280;52765;52.258;21.052;2023-02-18T11:15:59;99807.69;;;7.30;60.09
65997;BME280;52765;52.258;21.052;2023-02-18T11:20:57;99833.94;;;7.27;61.46
65997;BME280;52765;52.258;21.052;2023-02-18T11:23:22;99839.75;;;7.12;61.60
65997;BME280;52765;52.258;21.052;2023-02-18T11:26:03;99813.25;;;7.09;62.40
65997;BME280;52765;52.258;21.052;2023-02-18T11:31:00;99796.06;;;7.12;62.02
65997;BME280;52765;52.258;21.052;2023-02-18T11:33:35;99803.91;;;7.23;62.05
65997;BME280;52765;52.258;21.052;2023-02-18T11:38:54;99807.81;;;7.29;61.46
65997;BME280;52765;52.258;21.052;2023-02-18T11:41:29;99815.41;;;7.33;62.03
65997;BME280;52765;52.258;21.052;2023-02-18T11:43:56;99825.38;;;7.41;61.76
65997;BME280;52765;52.258;21.052;2023-02-18T11:46:24;99820.13;;;7.49;62.15
65997;BME280;52765;52.258;21.052;2023-02-18T11:48:51;99810.19;;;7.59;62.36
65997;BME280;52765;52.258;21.052;2023-02-18T11:51:29;99814.59;;;7.51;63.15
65997;BME280;52765;52.258;21.052;2023-02-18T11:54:04;99810.69;;;7.73;62.04
65997;BME280;52765;52.258;21.052;2023-02-18T11:56:33;99802.94;;;7.70;62.06
65997;BME280;52765;52.258;21.052;2023-02-18T11:59:00;99818.31;;;7.86;60.70
65997;BME280;52765;52.258;21.052;2023-02-18T12:04:00;99795.84;;;7.51;61.24
65997;BME280;52765;52.258;21.052;2023-02-18T12:06:34;99805.53;;;7.34;61.11
65997;BME280;52765;52.258;21.052;2023-02-18T12:11:46;99803.88;;;7.51;60.62
65997;BME280;52765;52.258;21.052;2023-02-18T12:14:20;99791.19;;;7.53;61.27
65997;BME280;52765;52.258;21.052;2023-02-18T12:20:06;99789.59;;;7.60;60.04
65997;BME280;52765;52.258;21.052;2023-02-18T12:22:44;99781.47;;;7.70;59.33
65997;BME280;52765;52.258;21.052;2023-02-18T12:25:23;99781.41;;;7.62;59.52
65997;BME280;52765;52.258;21.052;2023-02-18T12:28:18;99791.09;;;7.63;59.70
65997;BME280;52765;52.258;21.052;2023-02-18T12:31:05;99783.94;;;7.63;59.95
65997;BME280;52765;52.258;21.052;2023-02-18T12:36:22;99784.06;;;7.62;59.03
65997;BME280;52765;52.258;21.052;2023-02-18T12:39:10;99779.47;;;7.54;59.40
65997;BME280;52765;52.258;21.052;2023-02-18T12:42:07;99772.81;;;7.58;59.01
65997;BME280;52765;52.258;21.052;2023-02-18T12:47:23;99764.09;;;7.92;57.67
65997;BME280;52765;52.258;21.052;2023-02-18T12:50:31;99749.84;;;7.91;57.65
65997;BME280;52765;52.258;21.052;2023-02-18T13:04:15;99753.88;;;7.41;58.64
65997;BME280;52765;52.258;21.052;2023-02-18T13:14:52;99742.47;;;7.39;58.87
65997;BME280;52765;52.258;21.052;2023-02-18T13:17:23;99732.97;;;7.45;59.19
65997;BME280;52765;52.258;21.052;2023-02-18T13:19:51;99766.34;;;7.51;59.03
65997;BME280;52765;52.258;21.052;2023-02-18T13:22:21;99753.09;;;7.49;59.75
65997;BME280;52765;52.258;21.052;2023-02-18T13:24:49;99739.13;;;7.28;61.39
65997;BME280;52765;52.258;21.052;2023-02-18T13:34:54;99757.25;;;7.16;63.88
65997;BME280;52765;52.258;21.052;2023-02-18T13:39:55;99748.38;;;7.15;65.35
65997;BME280;52765;52.258;21.052;2023-02-18T13:42:34;99760.16;;;7.04;65.86
65997;BME280;52765;52.258;21.052;2023-02-18T13:47:40;99765.59;;;6.85;67.95
65997;BME280;52765;52.258;21.052;2023-02-18T13:55:36;99741.34;;;6.87;68.79
65997;BME280;52765;52.258;21.052;2023-02-18T13:58:04;99741.25;;;6.78;69.69
65997;BME280;52765;52.258;21.052;2023-02-18T14:00:36;99741.91;;;6.90;69.73
65997;BME280;52765;52.258;21.052;2023-02-18T14:08:45;99755.75;;;6.76;70.12
65997;BME280;52765;52.258;21.052;2023-02-18T14:16:08;99735.31;;;6.84;70.02
65997;BME280;52765;52.258;21.052;2023-02-18T14:18:53;99754.06;;;6.84;70.54
65997;BME280;52765;52.258;21.052;2023-02-18T14:21:22;99748.00;;;6.73;70.85
65997;BME280;52765;52.258;21.052;2023-02-18T14:24:01;99736.78;;;6.59;71.46
65997;BME280;52765;52.258;21.052;2023-02-18T14:26:36;99727.06;;;6.68;71.92
65997;BME280;52765;52.258;21.052;2023-02-18T14:29:06;99725.06;;;6.70;72.15
65997;BME280;52765;52.258;21.052;2023-02-18T14:31:53;99730.19;;;6.63;72.41
65997;BME280;52765;52.258;21.052;2023-02-18T14:46:40;99686.00;;;6.50;74.32
65997;BME280;52765;52.258;21.052;2023-02-18T14:51:55;99700.22;;;6.50;74.72
65997;BME280;52765;52.258;21.052;2023-02-18T14:54:24;99707.53;;;6.58;74.87
65997;BME280;52765;52.258;21.052;2023-02-18T14:57:08;99696.06;;;6.65;74.58
65997;BME280;52765;52.258;21.052;2023-02-18T14:59:43;99706.91;;;6.64;75.39
65997;BME280;52765;52.258;21.052;2023-02-18T15:02:23;99689.47;;;6.60;76.65
65997;BME280;52765;52.258;21.052;2023-02-18T15:05:15;99712.00;;;6.57;78.06
65997;BME280;52765;52.258;21.052;2023-02-18T15:07:39;99704.88;;;6.48;80.39
65997;BME280;52765;52.258;21.052;2023-02-18T15:10:12;99714.81;;;6.18;81.52
65997;BME280;52765;52.258;21.052;2023-02-18T15:12:38;99712.84;;;6.20;82.49
65997;BME280;52765;52.258;21.052;2023-02-18T15:15:04;99714.41;;;6.23;83.30
65997;BME280;52765;52.258;21.052;2023-02-18T15:17:30;99770.41;;;5.85;82.77
65997;BME280;52765;52.258;21.052;2023-02-18T15:19:59;99734.78;;;5.46;84.54
65997;BME280;52765;52.258;21.052;2023-02-18T15:22:31;99729.03;;;5.50;86.11
65997;BME280;52765;52.258;21.052;2023-02-18T15:24:58;99718.47;;;5.39;83.13